Rechercher aéroport 
image banner adimage banner adimage banner ad
image banner ad

41PA - Deitch

Situé à New Kingstown, United States

ICAO - 41PA, IATA -

Données fournies par Airmate  

Information générale

Coordonnées: N40°15'28" W77°4'53"
Élévation : 420 feet MSL.
Variation magnétique : -10° East
Voir autres Aéroports à Pennsylvania

Données opérationnelles

Special qualification required
Heure actuelle UTC:
Heure actuelle locale:
Météo à : KCXY - Capital City ( 20 km )
METAR: KCXY 150556Z AUTO 24004KT 8SM FEW080 17/16 A2979 RMK AO2 SLP088 60006 T01720161 10200 20172 50002
Voir NOTAMs / SUP AIP / TFR affectant cet aéroport [VIEW]
Fréquences de communication: [VIEW]

Pistes:

Identifiant RWYQFULongueur (ft)Largeur (ft)SurfaceLDA (ft)
081200100GRASS
261200100GRASS
161276100GRASS
341276100GRASS

Coordonnées de l'aéroport

Adresse: New Kingstown United States

Vue satellite de 41PA